sensor_id;sensor_type;location;lat;lon;timestamp;P1;durP1;ratioP1;P2;durP2;ratioP2
58950;SDS011;44730;53.158;6.398;2023-05-20T00:00:47;9.70;;;4.32;;
58950;SDS011;44730;53.158;6.398;2023-05-20T00:03:14;9.55;;;4.45;;
58950;SDS011;44730;53.158;6.398;2023-05-20T00:05:40;11.45;;;4.32;;
58950;SDS011;44730;53.158;6.398;2023-05-20T00:08:06;6.68;;;4.22;;
58950;SDS011;44730;53.158;6.398;2023-05-20T00:10:37;8.23;;;4.30;;
58950;SDS011;44730;53.158;6.398;2023-05-20T00:13:03;10.02;;;4.30;;
58950;SDS011;44730;53.158;6.398;2023-05-20T00:15:30;8.25;;;4.47;;
58950;SDS011;44730;53.158;6.398;2023-05-20T00:17:57;9.25;;;4.70;;
58950;SDS011;44730;53.158;6.398;2023-05-20T00:20:23;7.68;;;4.55;;
58950;SDS011;44730;53.158;6.398;2023-05-20T00:22:49;9.68;;;4.70;;
58950;SDS011;44730;53.158;6.398;2023-05-20T00:25:15;8.38;;;4.53;;
58950;SDS011;44730;53.158;6.398;2023-05-20T00:27:41;10.48;;;4.82;;
58950;SDS011;44730;53.158;6.398;2023-05-20T00:30:07;13.35;;;5.00;;
58950;SDS011;44730;53.158;6.398;2023-05-20T00:32:34;9.20;;;4.75;;
58950;SDS011;44730;53.158;6.398;2023-05-20T00:35:00;8.30;;;4.60;;
58950;SDS011;44730;53.158;6.398;2023-05-20T00:37:26;9.48;;;4.80;;
58950;SDS011;44730;53.158;6.398;2023-05-20T00:39:55;7.40;;;4.45;;
58950;SDS011;44730;53.158;6.398;2023-05-20T00:42:21;13.57;;;5.50;;
58950;SDS011;44730;53.158;6.398;2023-05-20T00:44:48;10.93;;;4.63;;
58950;SDS011;44730;53.158;6.398;2023-05-20T00:47:15;8.48;;;5.03;;
58950;SDS011;44730;53.158;6.398;2023-05-20T00:49:42;8.23;;;4.60;;
58950;SDS011;44730;53.158;6.398;2023-05-20T00:52:09;6.95;;;4.38;;
58950;SDS011;44730;53.158;6.398;2023-05-20T00:54:35;7.82;;;4.53;;
58950;SDS011;44730;53.158;6.398;2023-05-20T00:57:02;7.72;;;4.72;;
58950;SDS011;44730;53.158;6.398;2023-05-20T00:59:28;8.98;;;4.50;;
58950;SDS011;44730;53.158;6.398;2023-05-20T01:01:54;9.38;;;5.00;;
58950;SDS011;44730;53.158;6.398;2023-05-20T01:04:21;6.85;;;4.57;;
58950;SDS011;44730;53.158;6.398;2023-05-20T01:06:47;8.02;;;4.35;;
58950;SDS011;44730;53.158;6.398;2023-05-20T01:09:13;6.22;;;4.30;;
58950;SDS011;44730;53.158;6.398;2023-05-20T01:11:42;7.30;;;4.53;;
58950;SDS011;44730;53.158;6.398;2023-05-20T01:14:09;6.40;;;4.45;;
58950;SDS011;44730;53.158;6.398;2023-05-20T01:16:37;6.35;;;4.43;;
58950;SDS011;44730;53.158;6.398;2023-05-20T01:19:04;7.30;;;4.72;;
58950;SDS011;44730;53.158;6.398;2023-05-20T01:21:32;11.23;;;5.18;;
58950;SDS011;44730;53.158;6.398;2023-05-20T01:23:59;8.88;;;4.90;;
58950;SDS011;44730;53.158;6.398;2023-05-20T01:26:25;8.23;;;4.95;;
58950;SDS011;44730;53.158;6.398;2023-05-20T01:28:51;6.85;;;4.32;;
58950;SDS011;44730;53.158;6.398;2023-05-20T01:31:22;6.35;;;4.90;;
58950;SDS011;44730;53.158;6.398;2023-05-20T01:33:49;8.60;;;4.50;;
58950;SDS011;44730;53.158;6.398;2023-05-20T01:36:17;8.80;;;4.45;;
58950;SDS011;44730;53.158;6.398;2023-05-20T01:38:45;7.63;;;4.70;;
58950;SDS011;44730;53.158;6.398;2023-05-20T01:41:12;8.10;;;4.85;;
58950;SDS011;44730;53.158;6.398;2023-05-20T01:43:39;7.85;;;4.82;;
58950;SDS011;44730;53.158;6.398;2023-05-20T01:46:05;7.60;;;4.47;;
58950;SDS011;44730;53.158;6.398;2023-05-20T01:48:31;9.07;;;4.95;;
58950;SDS011;44730;53.158;6.398;2023-05-20T01:50:58;7.97;;;4.35;;
58950;SDS011;44730;53.158;6.398;2023-05-20T01:53:24;10.32;;;5.15;;
58950;SDS011;44730;53.158;6.398;2023-05-20T01:55:50;8.20;;;5.00;;
58950;SDS011;44730;53.158;6.398;2023-05-20T01:58:16;7.28;;;4.85;;
58950;SDS011;44730;53.158;6.398;2023-05-20T02:00:42;9.70;;;4.13;;
58950;SDS011;44730;53.158;6.398;2023-05-20T02:03:09;8.23;;;5.05;;
58950;SDS011;44730;53.158;6.398;2023-05-20T02:05:35;8.52;;;4.85;;
58950;SDS011;44730;53.158;6.398;2023-05-20T02:08:01;8.15;;;5.00;;
58950;SDS011;44730;53.158;6.398;2023-05-20T02:10:27;7.28;;;4.75;;
58950;SDS011;44730;53.158;6.398;2023-05-20T02:12:53;7.45;;;4.45;;
58950;SDS011;44730;53.158;6.398;2023-05-20T02:15:19;9.38;;;4.90;;
58950;SDS011;44730;53.158;6.398;2023-05-20T02:17:45;10.30;;;5.18;;
58950;SDS011;44730;53.158;6.398;2023-05-20T02:20:12;8.38;;;4.65;;
58950;SDS011;44730;53.158;6.398;2023-05-20T02:22:38;7.00;;;4.88;;
58950;SDS011;44730;53.158;6.398;2023-05-20T02:25:04;6.50;;;5.03;;
58950;SDS011;44730;53.158;6.398;2023-05-20T02:27:33;9.55;;;5.05;;
58950;SDS011;44730;53.158;6.398;2023-05-20T02:29:59;7.85;;;4.97;;
58950;SDS011;44730;53.158;6.398;2023-05-20T02:32:26;7.85;;;5.10;;
58950;SDS011;44730;53.158;6.398;2023-05-20T02:34:56;7.97;;;4.97;;
58950;SDS011;44730;53.158;6.398;2023-05-20T02:37:22;9.05;;;5.10;;
58950;SDS011;44730;53.158;6.398;2023-05-20T02:39:48;8.15;;;5.68;;
58950;SDS011;44730;53.158;6.398;2023-05-20T02:42:14;6.40;;;4.85;;
58950;SDS011;44730;53.158;6.398;2023-05-20T02:44:40;10.10;;;5.10;;
58950;SDS011;44730;53.158;6.398;2023-05-20T02:47:06;7.45;;;5.13;;
58950;SDS011;44730;53.158;6.398;2023-05-20T02:49:32;9.68;;;4.80;;
58950;SDS011;44730;53.158;6.398;2023-05-20T02:52:01;9.45;;;4.90;;
58950;SDS011;44730;53.158;6.398;2023-05-20T02:54:28;8.07;;;5.10;;
58950;SDS011;44730;53.158;6.398;2023-05-20T02:56:57;9.32;;;4.85;;
58950;SDS011;44730;53.158;6.398;2023-05-20T02:59:23;7.53;;;4.57;;
58950;SDS011;44730;53.158;6.398;2023-05-20T03:01:49;7.55;;;5.00;;
58950;SDS011;44730;53.158;6.398;2023-05-20T03:04:15;7.07;;;4.78;;
58950;SDS011;44730;53.158;6.398;2023-05-20T03:06:43;11.02;;;5.15;;
58950;SDS011;44730;53.158;6.398;2023-05-20T03:09:10;7.35;;;4.80;;
58950;SDS011;44730;53.158;6.398;2023-05-20T03:11:36;7.75;;;4.90;;
58950;SDS011;44730;53.158;6.398;2023-05-20T03:14:02;5.93;;;4.63;;
58950;SDS011;44730;53.158;6.398;2023-05-20T03:16:28;7.65;;;4.45;;
58950;SDS011;44730;53.158;6.398;2023-05-20T03:18:54;9.85;;;4.70;;
58950;SDS011;44730;53.158;6.398;2023-05-20T03:21:21;8.90;;;4.80;;
58950;SDS011;44730;53.158;6.398;2023-05-20T03:23:47;9.00;;;4.90;;
58950;SDS011;44730;53.158;6.398;2023-05-20T03:26:14;8.82;;;5.65;;
58950;SDS011;44730;53.158;6.398;2023-05-20T03:28:40;8.80;;;4.63;;
58950;SDS011;44730;53.158;6.398;2023-05-20T03:31:06;8.18;;;5.72;;
58950;SDS011;44730;53.158;6.398;2023-05-20T03:33:33;7.53;;;4.47;;
58950;SDS011;44730;53.158;6.398;2023-05-20T03:36:00;8.27;;;5.13;;
58950;SDS011;44730;53.158;6.398;2023-05-20T03:38:26;8.23;;;4.93;;
58950;SDS011;44730;53.158;6.398;2023-05-20T03:40:54;7.30;;;4.80;;
58950;SDS011;44730;53.158;6.398;2023-05-20T03:43:20;7.22;;;4.60;;
58950;SDS011;44730;53.158;6.398;2023-05-20T03:45:47;7.13;;;4.38;;
58950;SDS011;44730;53.158;6.398;2023-05-20T03:48:13;6.75;;;4.45;;
58950;SDS011;44730;53.158;6.398;2023-05-20T03:50:39;8.50;;;4.80;;
58950;SDS011;44730;53.158;6.398;2023-05-20T03:53:05;7.65;;;4.80;;
58950;SDS011;44730;53.158;6.398;2023-05-20T03:55:31;5.85;;;4.00;;
58950;SDS011;44730;53.158;6.398;2023-05-20T03:57:57;7.38;;;4.90;;
58950;SDS011;44730;53.158;6.398;2023-05-20T04:00:24;5.78;;;4.30;;
58950;SDS011;44730;53.158;6.398;2023-05-20T04:02:50;6.20;;;4.03;;
58950;SDS011;44730;53.158;6.398;2023-05-20T04:05:16;5.57;;;3.88;;
58950;SDS011;44730;53.158;6.398;2023-05-20T04:07:45;6.25;;;4.50;;
58950;SDS011;44730;53.158;6.398;2023-05-20T04:10:17;5.97;;;4.25;;
58950;SDS011;44730;53.158;6.398;2023-05-20T04:12:43;9.25;;;3.97;;
58950;SDS011;44730;53.158;6.398;2023-05-20T04:15:09;6.25;;;3.72;;
58950;SDS011;44730;53.158;6.398;2023-05-20T04:17:35;9.32;;;4.50;;
58950;SDS011;44730;53.158;6.398;2023-05-20T04:20:03;5.45;;;3.60;;
58950;SDS011;44730;53.158;6.398;2023-05-20T04:22:32;7.10;;;3.63;;
58950;SDS011;44730;53.158;6.398;2023-05-20T04:24:59;6.60;;;3.50;;
58950;SDS011;44730;53.158;6.398;2023-05-20T04:27:27;4.78;;;3.38;;
58950;SDS011;44730;53.158;6.398;2023-05-20T04:29:53;5.75;;;3.25;;
58950;SDS011;44730;53.158;6.398;2023-05-20T04:32:22;6.93;;;3.47;;
58950;SDS011;44730;53.158;6.398;2023-05-20T04:34:48;7.05;;;3.50;;
58950;SDS011;44730;53.158;6.398;2023-05-20T04:37:15;8.95;;;3.67;;
58950;SDS011;44730;53.158;6.398;2023-05-20T04:39:41;4.35;;;3.10;;
58950;SDS011;44730;53.158;6.398;2023-05-20T04:42:08;6.53;;;3.42;;
58950;SDS011;44730;53.158;6.398;2023-05-20T04:44:34;7.90;;;3.97;;
58950;SDS011;44730;53.158;6.398;2023-05-20T04:47:00;5.15;;;3.40;;
58950;SDS011;44730;53.158;6.398;2023-05-20T04:49:26;5.13;;;2.78;;
58950;SDS011;44730;53.158;6.398;2023-05-20T04:51:55;5.30;;;3.25;;
58950;SDS011;44730;53.158;6.398;2023-05-20T04:54:22;4.78;;;3.33;;
58950;SDS011;44730;53.158;6.398;2023-05-20T04:56:51;4.63;;;2.60;;
58950;SDS011;44730;53.158;6.398;2023-05-20T04:59:17;4.93;;;2.97;;
58950;SDS011;44730;53.158;6.398;2023-05-20T05:01:43;4.40;;;3.38;;
58950;SDS011;44730;53.158;6.398;2023-05-20T05:04:09;7.25;;;3.10;;
58950;SDS011;44730;53.158;6.398;2023-05-20T05:06:38;4.47;;;2.60;;
58950;SDS011;44730;53.158;6.398;2023-05-20T05:09:04;4.05;;;2.90;;
58950;SDS011;44730;53.158;6.398;2023-05-20T05:11:30;4.68;;;2.83;;
58950;SDS011;44730;53.158;6.398;2023-05-20T05:13:56;3.50;;;2.50;;
58950;SDS011;44730;53.158;6.398;2023-05-20T05:16:22;4.78;;;2.63;;
58950;SDS011;44730;53.158;6.398;2023-05-20T05:18:48;4.40;;;2.35;;
58950;SDS011;44730;53.158;6.398;2023-05-20T05:21:14;4.57;;;2.70;;
58950;SDS011;44730;53.158;6.398;2023-05-20T05:23:40;4.70;;;2.70;;
58950;SDS011;44730;53.158;6.398;2023-05-20T05:26:07;3.90;;;2.53;;
58950;SDS011;44730;53.158;6.398;2023-05-20T05:28:33;4.55;;;2.55;;
58950;SDS011;44730;53.158;6.398;2023-05-20T05:30:59;3.80;;;2.47;;
58950;SDS011;44730;53.158;6.398;2023-05-20T05:33:26;4.70;;;2.40;;
58950;SDS011;44730;53.158;6.398;2023-05-20T05:35:52;4.05;;;2.22;;
58950;SDS011;44730;53.158;6.398;2023-05-20T05:38:18;3.78;;;2.40;;
58950;SDS011;44730;53.158;6.398;2023-05-20T05:40:44;3.85;;;2.22;;
58950;SDS011;44730;53.158;6.398;2023-05-20T05:43:10;3.40;;;2.17;;
58950;SDS011;44730;53.158;6.398;2023-05-20T05:45:37;2.97;;;2.28;;
58950;SDS011;44730;53.158;6.398;2023-05-20T05:48:05;3.05;;;2.03;;
58950;SDS011;44730;53.158;6.398;2023-05-20T05:50:34;3.45;;;2.05;;
58950;SDS011;44730;53.158;6.398;2023-05-20T05:53:00;3.25;;;2.13;;
58950;SDS011;44730;53.158;6.398;2023-05-20T05:55:27;3.92;;;2.20;;
58950;SDS011;44730;53.158;6.398;2023-05-20T05:57:53;6.28;;;2.15;;
58950;SDS011;44730;53.158;6.398;2023-05-20T06:00:20;3.72;;;2.25;;
58950;SDS011;44730;53.158;6.398;2023-05-20T06:02:46;3.55;;;2.08;;
58950;SDS011;44730;53.158;6.398;2023-05-20T06:05:12;2.95;;;1.90;;
58950;SDS011;44730;53.158;6.398;2023-05-20T06:07:38;2.10;;;1.90;;
58950;SDS011;44730;53.158;6.398;2023-05-20T06:10:04;3.25;;;1.90;;
58950;SDS011;44730;53.158;6.398;2023-05-20T06:12:36;2.92;;;1.90;;
58950;SDS011;44730;53.158;6.398;2023-05-20T06:15:02;3.30;;;2.03;;
58950;SDS011;44730;53.158;6.398;2023-05-20T06:17:29;2.20;;;1.77;;
58950;SDS011;44730;53.158;6.398;2023-05-20T06:19:55;2.78;;;1.88;;
58950;SDS011;44730;53.158;6.398;2023-05-20T06:22:21;3.78;;;2.00;;
58950;SDS011;44730;53.158;6.398;2023-05-20T06:24:47;2.08;;;1.70;;
58950;SDS011;44730;53.158;6.398;2023-05-20T06:27:13;2.00;;;1.80;;
58950;SDS011;44730;53.158;6.398;2023-05-20T06:29:39;2.67;;;1.88;;
58950;SDS011;44730;53.158;6.398;2023-05-20T06:32:05;2.78;;;1.70;;
58950;SDS011;44730;53.158;6.398;2023-05-20T06:34:31;2.00;;;1.60;;
58950;SDS011;44730;53.158;6.398;2023-05-20T06:36:57;3.55;;;1.70;;
58950;SDS011;44730;53.158;6.398;2023-05-20T06:39:24;3.08;;;1.90;;
58950;SDS011;44730;53.158;6.398;2023-05-20T06:41:50;3.47;;;1.90;;
58950;SDS011;44730;53.158;6.398;2023-05-20T06:44:17;2.25;;;1.63;;
58950;SDS011;44730;53.158;6.398;2023-05-20T06:46:44;3.03;;;1.60;;
58950;SDS011;44730;53.158;6.398;2023-05-20T06:49:10;2.00;;;1.75;;
58950;SDS011;44730;53.158;6.398;2023-05-20T06:51:38;3.13;;;1.75;;
58950;SDS011;44730;53.158;6.398;2023-05-20T06:54:04;4.53;;;1.83;;
58950;SDS011;44730;53.158;6.398;2023-05-20T06:56:31;2.30;;;1.70;;
58950;SDS011;44730;53.158;6.398;2023-05-20T06:58:57;2.88;;;1.83;;
58950;SDS011;44730;53.158;6.398;2023-05-20T07:01:23;2.17;;;1.75;;
58950;SDS011;44730;53.158;6.398;2023-05-20T07:03:49;3.15;;;1.65;;
58950;SDS011;44730;53.158;6.398;2023-05-20T07:06:15;2.17;;;1.70;;
58950;SDS011;44730;53.158;6.398;2023-05-20T07:08:41;3.15;;;1.70;;
58950;SDS011;44730;53.158;6.398;2023-05-20T07:11:07;2.00;;;1.63;;
58950;SDS011;44730;53.158;6.398;2023-05-20T07:13:33;3.10;;;1.77;;
58950;SDS011;44730;53.158;6.398;2023-05-20T07:15:59;2.00;;;1.60;;
58950;SDS011;44730;53.158;6.398;2023-05-20T07:18:25;3.58;;;1.80;;
58950;SDS011;44730;53.158;6.398;2023-05-20T07:20:52;5.38;;;2.30;;
58950;SDS011;44730;53.158;6.398;2023-05-20T07:23:20;2.03;;;1.83;;
58950;SDS011;44730;53.158;6.398;2023-05-20T07:25:46;2.58;;;1.50;;
58950;SDS011;44730;53.158;6.398;2023-05-20T07:28:14;1.73;;;1.50;;
58950;SDS011;44730;53.158;6.398;2023-05-20T07:30:41;2.88;;;1.52;;
58950;SDS011;44730;53.158;6.398;2023-05-20T07:33:14;1.88;;;1.65;;
58950;SDS011;44730;53.158;6.398;2023-05-20T07:35:40;1.70;;;1.40;;
58950;SDS011;44730;53.158;6.398;2023-05-20T07:38:06;2.15;;;1.70;;
58950;SDS011;44730;53.158;6.398;2023-05-20T07:40:33;2.45;;;1.70;;
58950;SDS011;44730;53.158;6.398;2023-05-20T07:43:00;3.10;;;1.80;;
58950;SDS011;44730;53.158;6.398;2023-05-20T07:45:26;2.58;;;1.73;;
58950;SDS011;44730;53.158;6.398;2023-05-20T07:47:53;2.50;;;1.98;;
58950;SDS011;44730;53.158;6.398;2023-05-20T07:50:19;2.58;;;1.55;;
58950;SDS011;44730;53.158;6.398;2023-05-20T07:52:45;3.17;;;1.58;;
58950;SDS011;44730;53.158;6.398;2023-05-20T07:55:11;2.88;;;1.60;;
58950;SDS011;44730;53.158;6.398;2023-05-20T07:57:37;4.10;;;1.92;;
58950;SDS011;44730;53.158;6.398;2023-05-20T08:00:03;2.65;;;1.50;;
58950;SDS011;44730;53.158;6.398;2023-05-20T08:02:30;3.45;;;1.58;;
58950;SDS011;44730;53.158;6.398;2023-05-20T08:04:56;1.98;;;1.80;;
58950;SDS011;44730;53.158;6.398;2023-05-20T08:07:22;3.53;;;1.92;;
58950;SDS011;44730;53.158;6.398;2023-05-20T08:09:48;2.33;;;1.67;;
58950;SDS011;44730;53.158;6.398;2023-05-20T08:12:15;2.63;;;1.80;;
58950;SDS011;44730;53.158;6.398;2023-05-20T08:14:41;5.80;;;1.85;;
58950;SDS011;44730;53.158;6.398;2023-05-20T08:17:08;2.08;;;1.63;;
58950;SDS011;44730;53.158;6.398;2023-05-20T08:19:49;2.30;;;1.60;;
58950;SDS011;44730;53.158;6.398;2023-05-20T08:22:15;2.80;;;1.60;;
58950;SDS011;44730;53.158;6.398;2023-05-20T08:24:42;1.70;;;1.60;;
58950;SDS011;44730;53.158;6.398;2023-05-20T08:27:08;3.17;;;1.63;;
58950;SDS011;44730;53.158;6.398;2023-05-20T08:29:34;1.60;;;1.50;;
58950;SDS011;44730;53.158;6.398;2023-05-20T08:32:00;2.38;;;1.63;;
58950;SDS011;44730;53.158;6.398;2023-05-20T08:34:26;3.25;;;2.08;;
58950;SDS011;44730;53.158;6.398;2023-05-20T08:36:53;2.08;;;1.80;;
58950;SDS011;44730;53.158;6.398;2023-05-20T08:39:19;2.63;;;1.67;;
58950;SDS011;44730;53.158;6.398;2023-05-20T08:41:45;3.55;;;2.20;;
58950;SDS011;44730;53.158;6.398;2023-05-20T08:44:12;2.20;;;1.95;;
58950;SDS011;44730;53.158;6.398;2023-05-20T08:46:38;2.42;;;1.65;;
58950;SDS011;44730;53.158;6.398;2023-05-20T08:49:05;3.53;;;1.90;;
58950;SDS011;44730;53.158;6.398;2023-05-20T08:51:32;2.00;;;1.80;;
58950;SDS011;44730;53.158;6.398;2023-05-20T08:54:01;2.00;;;1.55;;
58950;SDS011;44730;53.158;6.398;2023-05-20T08:56:27;2.42;;;1.55;;
58950;SDS011;44730;53.158;6.398;2023-05-20T08:58:53;3.40;;;1.90;;
58950;SDS011;44730;53.158;6.398;2023-05-20T09:01:23;2.40;;;2.00;;
58950;SDS011;44730;53.158;6.398;2023-05-20T09:03:50;2.67;;;1.88;;
58950;SDS011;44730;53.158;6.398;2023-05-20T09:06:17;2.40;;;1.85;;
58950;SDS011;44730;53.158;6.398;2023-05-20T09:08:49;2.67;;;2.03;;
58950;SDS011;44730;53.158;6.398;2023-05-20T09:11:16;4.45;;;1.90;;
58950;SDS011;44730;53.158;6.398;2023-05-20T09:13:42;3.40;;;2.08;;
58950;SDS011;44730;53.158;6.398;2023-05-20T09:16:09;2.63;;;1.83;;
58950;SDS011;44730;53.158;6.398;2023-05-20T09:18:38;2.63;;;1.90;;
58950;SDS011;44730;53.158;6.398;2023-05-20T09:21:05;3.58;;;1.80;;
58950;SDS011;44730;53.158;6.398;2023-05-20T09:23:31;2.97;;;2.05;;
58950;SDS011;44730;53.158;6.398;2023-05-20T09:25:59;3.42;;;2.03;;
58950;SDS011;44730;53.158;6.398;2023-05-20T09:28:28;3.38;;;1.83;;
58950;SDS011;44730;53.158;6.398;2023-05-20T09:30:57;2.72;;;2.00;;
58950;SDS011;44730;53.158;6.398;2023-05-20T09:33:26;2.88;;;2.03;;
58950;SDS011;44730;53.158;6.398;2023-05-20T09:35:59;2.58;;;1.88;;
58950;SDS011;44730;53.158;6.398;2023-05-20T09:38:26;2.55;;;1.85;;
58950;SDS011;44730;53.158;6.398;2023-05-20T09:40:52;3.20;;;2.00;;
58950;SDS011;44730;53.158;6.398;2023-05-20T09:43:19;2.88;;;1.90;;
58950;SDS011;44730;53.158;6.398;2023-05-20T09:45:46;3.25;;;1.98;;
58950;SDS011;44730;53.158;6.398;2023-05-20T09:48:12;2.13;;;1.92;;
58950;SDS011;44730;53.158;6.398;2023-05-20T09:50:38;4.35;;;2.17;;
58950;SDS011;44730;53.158;6.398;2023-05-20T09:53:05;2.33;;;2.00;;
58950;SDS011;44730;53.158;6.398;2023-05-20T09:55:34;3.25;;;1.90;;
58950;SDS011;44730;53.158;6.398;2023-05-20T09:58:01;2.47;;;2.20;;
58950;SDS011;44730;53.158;6.398;2023-05-20T10:00:27;5.00;;;2.00;;
58950;SDS011;44730;53.158;6.398;2023-05-20T10:02:53;2.78;;;2.10;;
58950;SDS011;44730;53.158;6.398;2023-05-20T10:07:51;4.05;;;2.03;;
58950;SDS011;44730;53.158;6.398;2023-05-20T10:18:42;2.65;;;1.88;;
58950;SDS011;44730;53.158;6.398;2023-05-20T10:21:17;2.78;;;1.95;;
58950;SDS011;44730;53.158;6.398;2023-05-20T10:23:46;2.92;;;2.10;;
58950;SDS011;44730;53.158;6.398;2023-05-20T10:26:12;2.33;;;2.05;;
58950;SDS011;44730;53.158;6.398;2023-05-20T10:28:39;3.05;;;1.98;;
58950;SDS011;44730;53.158;6.398;2023-05-20T10:31:15;2.67;;;2.15;;
58950;SDS011;44730;53.158;6.398;2023-05-20T10:33:42;5.18;;;2.28;;
58950;SDS011;44730;53.158;6.398;2023-05-20T10:36:09;2.70;;;2.00;;
58950;SDS011;44730;53.158;6.398;2023-05-20T10:38:35;2.28;;;1.80;;
58950;SDS011;44730;53.158;6.398;2023-05-20T10:41:08;3.30;;;1.90;;
58950;SDS011;44730;53.158;6.398;2023-05-20T10:43:35;4.82;;;2.20;;
58950;SDS011;44730;53.158;6.398;2023-05-20T10:46:01;3.17;;;2.20;;
58950;SDS011;44730;53.158;6.398;2023-05-20T10:48:28;2.25;;;2.05;;
58950;SDS011;44730;53.158;6.398;2023-05-20T10:50:59;4.03;;;2.05;;
58950;SDS011;44730;53.158;6.398;2023-05-20T10:53:28;3.85;;;2.35;;
58950;SDS011;44730;53.158;6.398;2023-05-20T10:55:55;3.78;;;2.10;;
58950;SDS011;44730;53.158;6.398;2023-05-20T10:58:22;3.88;;;2.42;;
58950;SDS011;44730;53.158;6.398;2023-05-20T11:00:48;2.95;;;1.98;;
58950;SDS011;44730;53.158;6.398;2023-05-20T11:03:15;7.05;;;2.45;;
58950;SDS011;44730;53.158;6.398;2023-05-20T11:05:43;2.95;;;2.40;;
58950;SDS011;44730;53.158;6.398;2023-05-20T11:08:10;3.00;;;2.40;;
58950;SDS011;44730;53.158;6.398;2023-05-20T11:10:37;4.03;;;2.25;;
58950;SDS011;44730;53.158;6.398;2023-05-20T11:13:03;2.95;;;2.25;;
58950;SDS011;44730;53.158;6.398;2023-05-20T11:15:30;4.50;;;2.30;;
58950;SDS011;44730;53.158;6.398;2023-05-20T11:17:59;5.63;;;2.60;;
58950;SDS011;44730;53.158;6.398;2023-05-20T11:20:26;4.53;;;2.85;;
58950;SDS011;44730;53.158;6.398;2023-05-20T11:22:53;3.70;;;2.35;;
58950;SDS011;44730;53.158;6.398;2023-05-20T11:25:20;4.18;;;2.38;;
58950;SDS011;44730;53.158;6.398;2023-05-20T11:27:48;3.17;;;2.10;;
58950;SDS011;44730;53.158;6.398;2023-05-20T11:30:14;5.60;;;2.75;;
58950;SDS011;44730;53.158;6.398;2023-05-20T11:32:41;4.05;;;2.40;;
58950;SDS011;44730;53.158;6.398;2023-05-20T11:35:18;7.18;;;2.60;;
58950;SDS011;44730;53.158;6.398;2023-05-20T11:37:44;5.18;;;2.45;;
58950;SDS011;44730;53.158;6.398;2023-05-20T11:40:10;3.08;;;2.53;;
58950;SDS011;44730;53.158;6.398;2023-05-20T11:42:37;5.65;;;2.55;;
58950;SDS011;44730;53.158;6.398;2023-05-20T11:45:03;2.47;;;2.22;;
58950;SDS011;44730;53.158;6.398;2023-05-20T11:47:29;4.47;;;2.50;;
58950;SDS011;44730;53.158;6.398;2023-05-20T11:49:56;4.22;;;2.40;;
58950;SDS011;44730;53.158;6.398;2023-05-20T11:52:22;3.67;;;2.67;;
58950;SDS011;44730;53.158;6.398;2023-05-20T11:54:51;5.25;;;2.63;;
58950;SDS011;44730;53.158;6.398;2023-05-20T11:57:18;3.15;;;2.60;;
58950;SDS011;44730;53.158;6.398;2023-05-20T11:59:45;3.63;;;2.70;;
58950;SDS011;44730;53.158;6.398;2023-05-20T12:02:12;3.88;;;2.58;;
58950;SDS011;44730;53.158;6.398;2023-05-20T12:04:38;4.10;;;2.85;;
58950;SDS011;44730;53.158;6.398;2023-05-20T12:07:04;6.32;;;3.13;;
58950;SDS011;44730;53.158;6.398;2023-05-20T12:09:33;5.10;;;2.95;;
58950;SDS011;44730;53.158;6.398;2023-05-20T12:11:59;4.10;;;3.00;;
58950;SDS011;44730;53.158;6.398;2023-05-20T12:14:26;4.13;;;2.90;;
58950;SDS011;44730;53.158;6.398;2023-05-20T12:16:52;4.20;;;2.60;;
58950;SDS011;44730;53.158;6.398;2023-05-20T12:19:18;5.95;;;3.35;;
58950;SDS011;44730;53.158;6.398;2023-05-20T12:21:45;5.03;;;2.97;;
58950;SDS011;44730;53.158;6.398;2023-05-20T12:24:11;3.50;;;2.45;;
58950;SDS011;44730;53.158;6.398;2023-05-20T12:26:37;3.83;;;2.67;;
58950;SDS011;44730;53.158;6.398;2023-05-20T12:29:04;4.72;;;2.65;;
58950;SDS011;44730;53.158;6.398;2023-05-20T12:31:31;6.15;;;3.38;;
58950;SDS011;44730;53.158;6.398;2023-05-20T12:33:57;4.00;;;2.55;;
58950;SDS011;44730;53.158;6.398;2023-05-20T12:36:23;3.88;;;2.33;;
58950;SDS011;44730;53.158;6.398;2023-05-20T12:38:50;3.50;;;2.67;;
58950;SDS011;44730;53.158;6.398;2023-05-20T12:41:16;3.13;;;2.80;;
58950;SDS011;44730;53.158;6.398;2023-05-20T12:43:42;3.10;;;2.80;;
58950;SDS011;44730;53.158;6.398;2023-05-20T12:46:08;6.13;;;2.80;;
58950;SDS011;44730;53.158;6.398;2023-05-20T12:48:34;3.88;;;2.92;;
58950;SDS011;44730;53.158;6.398;2023-05-20T12:51:01;5.03;;;3.33;;
58950;SDS011;44730;53.158;6.398;2023-05-20T12:53:27;3.58;;;2.60;;
58950;SDS011;44730;53.158;6.398;2023-05-20T12:55:53;6.72;;;3.40;;
58950;SDS011;44730;53.158;6.398;2023-05-20T12:58:21;4.78;;;3.17;;
58950;SDS011;44730;53.158;6.398;2023-05-20T13:00:47;6.88;;;3.83;;
58950;SDS011;44730;53.158;6.398;2023-05-20T13:03:13;5.18;;;2.85;;
58950;SDS011;44730;53.158;6.398;2023-05-20T13:05:40;5.20;;;3.10;;
58950;SDS011;44730;53.158;6.398;2023-05-20T13:08:06;4.15;;;3.03;;
58950;SDS011;44730;53.158;6.398;2023-05-20T13:10:34;4.20;;;3.03;;
58950;SDS011;44730;53.158;6.398;2023-05-20T13:13:00;6.25;;;3.42;;
58950;SDS011;44730;53.158;6.398;2023-05-20T13:15:26;4.35;;;3.00;;
58950;SDS011;44730;53.158;6.398;2023-05-20T13:17:52;4.13;;;2.92;;
58950;SDS011;44730;53.158;6.398;2023-05-20T13:20:18;3.72;;;2.83;;
58950;SDS011;44730;53.158;6.398;2023-05-20T13:22:44;3.25;;;2.80;;
58950;SDS011;44730;53.158;6.398;2023-05-20T13:25:10;5.45;;;2.95;;
58950;SDS011;44730;53.158;6.398;2023-05-20T13:27:36;4.40;;;3.45;;
58950;SDS011;44730;53.158;6.398;2023-05-20T13:30:02;5.25;;;3.25;;
58950;SDS011;44730;53.158;6.398;2023-05-20T13:32:30;5.40;;;3.25;;
58950;SDS011;44730;53.158;6.398;2023-05-20T13:34:56;5.22;;;3.40;;
58950;SDS011;44730;53.158;6.398;2023-05-20T13:37:23;5.85;;;3.22;;
58950;SDS011;44730;53.158;6.398;2023-05-20T13:39:50;5.55;;;3.70;;
58950;SDS011;44730;53.158;6.398;2023-05-20T13:42:16;5.05;;;3.10;;
58950;SDS011;44730;53.158;6.398;2023-05-20T13:44:42;4.63;;;3.25;;
58950;SDS011;44730;53.158;6.398;2023-05-20T13:47:08;4.10;;;3.10;;
58950;SDS011;44730;53.158;6.398;2023-05-20T13:49:34;5.97;;;3.10;;
58950;SDS011;44730;53.158;6.398;2023-05-20T13:52:00;5.30;;;3.15;;
58950;SDS011;44730;53.158;6.398;2023-05-20T13:54:26;7.72;;;3.13;;
58950;SDS011;44730;53.158;6.398;2023-05-20T13:56:52;4.65;;;2.95;;
58950;SDS011;44730;53.158;6.398;2023-05-20T13:59:18;4.40;;;2.95;;
58950;SDS011;44730;53.158;6.398;2023-05-20T14:01:45;4.35;;;3.08;;
58950;SDS011;44730;53.158;6.398;2023-05-20T14:04:11;5.90;;;3.50;;
58950;SDS011;44730;53.158;6.398;2023-05-20T14:06:37;4.82;;;3.22;;
58950;SDS011;44730;53.158;6.398;2023-05-20T14:09:05;4.18;;;3.03;;
58950;SDS011;44730;53.158;6.398;2023-05-20T14:11:32;7.05;;;3.50;;
58950;SDS011;44730;53.158;6.398;2023-05-20T14:13:58;4.35;;;3.30;;
58950;SDS011;44730;53.158;6.398;2023-05-20T14:16:25;5.20;;;3.08;;
58950;SDS011;44730;53.158;6.398;2023-05-20T14:18:51;5.30;;;3.10;;
58950;SDS011;44730;53.158;6.398;2023-05-20T14:21:17;6.40;;;3.40;;
58950;SDS011;44730;53.158;6.398;2023-05-20T14:23:43;3.53;;;3.00;;
58950;SDS011;44730;53.158;6.398;2023-05-20T14:26:09;5.90;;;3.53;;
58950;SDS011;44730;53.158;6.398;2023-05-20T14:28:35;3.78;;;3.20;;
58950;SDS011;44730;53.158;6.398;2023-05-20T14:31:02;5.05;;;3.25;;
58950;SDS011;44730;53.158;6.398;2023-05-20T14:33:28;7.95;;;3.58;;
58950;SDS011;44730;53.158;6.398;2023-05-20T14:35:54;5.38;;;3.38;;
58950;SDS011;44730;53.158;6.398;2023-05-20T14:38:21;4.28;;;2.85;;
58950;SDS011;44730;53.158;6.398;2023-05-20T14:40:48;3.80;;;2.92;;
58950;SDS011;44730;53.158;6.398;2023-05-20T14:43:14;4.88;;;3.33;;
58950;SDS011;44730;53.158;6.398;2023-05-20T14:45:40;4.60;;;3.20;;
58950;SDS011;44730;53.158;6.398;2023-05-20T14:48:06;3.97;;;2.92;;
58950;SDS011;44730;53.158;6.398;2023-05-20T14:50:32;5.25;;;3.35;;
58950;SDS011;44730;53.158;6.398;2023-05-20T14:52:58;3.35;;;2.63;;
58950;SDS011;44730;53.158;6.398;2023-05-20T14:55:25;6.05;;;3.13;;